Maidenhead Half Marathon
Skip Navigation Links
07 September 2014
HyperLink
Click on your name for detailed data
Page 1 of 34 (1685 items)
[1]234567...31323334
Pos
Bib No
Fav
Share
Print
Name
Time
Chip Time
Category
Cat Pos
Second Categ
Second Categ Pos
Gender
Gen Pos
Club
Pace
12813Michael Hiscott1:07:35.41:07:34.2Top 31  Male1Maidenhead AC11.6 m/hr
23472Phil Sanders1:12:37.51:12:36.3Top 32ARC Champs1Male2Kent AC10.8 m/hr
32457Daniel Davies1:13:28.71:13:27.5Top 33  Male3Shaftesbury Barnet Harriers AC10.7 m/hr
43412Matthieu Ribault1:13:36.01:13:34.8Senior1  Male4Thames Valley Harriers10.7 m/hr
53867Nigel Rackham1:13:44.91:13:43.7V501  Male5Metros10.7 m/hr
61978Simon Newton1:13:48.81:13:47.6Senior2  Male6Ackworth Road Runners10.6 m/hr
73642Jamie Thom1:13:50.81:13:49.6Senior3  Male7 10.6 m/hr
83582Tom Stephenson1:14:12.11:14:10.8Senior4  Male8London Heathside10.6 m/hr
92169Steve Barnes1:15:14.61:15:13.0V401  Male9Newbury AC10.4 m/hr
10553Karl Spielmann1:15:40.21:15:39.0V402  Male10 10.4 m/hr
112556Stephen Elson1:15:48.01:15:46.9Senior5  Male11Ealing Southall & Middlesex AC10.4 m/hr
122726Stephen Gumbrill1:16:05.71:16:04.5Senior6  Male12Hart Road Runners10.3 m/hr
133174Andrew Mitchell1:17:05.21:17:03.8V403  Male13Thames Valley Harriers10.2 m/hr
143394Jonathan Ratcliffe1:17:56.81:17:54.5V404  Male14Herne Hill Harriers10.1 m/hr
153863Ben Martin-Dye1:18:03.61:18:02.4V405  Male15Bracknell Forest Runners10.1 m/hr
163537Simon Sikora1:18:14.11:18:12.4Senior7  Male16 10.0 m/hr
173989Martin Bateman1:18:34.21:18:32.7Senior8  Male17Hillingdon AC10.0 m/hr
183130Matthew Mcdaniel1:18:38.01:18:35.0Senior9  Male18 10.0 m/hr
192718Dylan Grimes1:18:49.81:18:48.6V406ARC Champs2Male19Barnes Runners10.0 m/hr
202760Nathan Harrison1:18:57.21:18:56.0Senior10  Male20 10.0 m/hr
212567Pascal Evans1:18:59.71:18:58.5V407  Male21Stragglers 9.9 m/hr
223400Carl Redondo1:19:22.81:19:21.6Senior11  Male22Trent park 9.9 m/hr
233747Chris Wayman1:19:28.01:19:26.8Senior12  Male23  9.9 m/hr
243155James Mensa-Annan1:19:39.41:19:38.2Senior13  Male24  9.9 m/hr
252480Michael Deering1:19:41.81:19:37.2Senior14  Male25Didcot Runners 9.9 m/hr
263748Alex Weatherill1:19:42.61:19:41.5Senior15  Male26London Heathside 9.9 m/hr
272633Simon Fraser1:19:48.81:19:46.8Senior16ARC Champs3Male27St Albans Striders 9.8 m/hr
283262Jose Manuel Pabon1:19:49.41:19:47.4Senior17  Male28Ealing Eagles Running Club 9.8 m/hr
293430Dave Roberts1:19:53.91:19:52.7V408  Male29Fell Runners Association 9.8 m/hr
302983Matthew Knight1:19:55.61:19:50.3V409  Male30Bracknell Forest Runners 9.8 m/hr
312762Will Harrison1:19:57.51:19:52.7Senior18  Male31Dorking & Mole Valley AC 9.8 m/hr
322874Alan Hutchinson1:20:03.91:20:01.0Senior19  Male32  9.8 m/hr
332188Chris Baynes1:20:22.41:20:20.5Senior20ARC Champs4Male33Garden City Runners 9.8 m/hr
342246Max Bontoft1:20:24.41:20:21.7Senior21  Male34  9.8 m/hr
353157Tomasz Mietki1:20:29.31:20:26.5Senior22  Male35  9.8 m/hr
362372Amy Clements1:20:47.41:20:39.4Top 31ARC Champs1Female1Kent AC 9.7 m/hr
373633Pawel Tatarek1:20:50.71:20:48.4Senior23  Male36Zoom Tri Club Bournemouth 9.7 m/hr
382903Phil Jelly1:20:53.81:20:43.1Senior24  Male37  9.7 m/hr
392580Steve Featherstone1:21:01.51:20:58.8V4010  Male38  9.7 m/hr
401036Raj Paranandi1:21:04.91:21:00.5Senior25  Male39  9.7 m/hr
413473John Sandhu1:21:07.61:21:05.2V4011  Male40  9.7 m/hr
423423Matt Risden1:21:09.31:21:08.1Senior26  Male41  9.7 m/hr
43340Chris Moseley1:21:10.01:21:08.9Senior27  Male42Wargrave Runners 9.7 m/hr
443370Emily Proto1:21:19.51:21:15.7Top 32  Female2Arena 80 AC 9.7 m/hr
453092Freysen Maritz1:21:27.21:21:24.9V4012  Male43Stragglers 9.6 m/hr
462764Henry Hart1:21:31.91:21:29.2Senior28  Male44  9.6 m/hr
473142Gary Mckivett1:21:37.41:21:34.0Senior29  Male45Arena 80 AC 9.6 m/hr
483708Sebastian Vons1:21:40.11:21:36.6Senior30  Male46Wimbledon Windmilers 9.6 m/hr
493555Robin Smith1:21:40.41:21:36.6V502ARC Champs5Male47Datchet Dashers 9.6 m/hr
502463Alan Wilson1:21:47.41:21:32.6V4013  Male48Reading Roadrunners 9.6 m/hr
Page 1 of 34 (1685 items)
[1]234567...31323334
fb

HyperLink Copyright (c) G Vincent, 2017